Time;durP1;ratioP1;P1;durP2;ratioP2;P2;SDS_P1;SDS_P2;PMS_P1;PMS_P2;Temp;Humidity;BMP_temperature;BMP_pressure;BME280_temperature;BME280_humidity;BME280_pressure;Samples;Min_cycle;Max_cycle;Signal;HPM_P1;HPM_P2
2023/06/02 00:01:31;;;;;;;14.70;5.20;;;;;;;15.16;68.01;100315.92;104855;1271;100792;-76
2023/06/02 00:04:17;;;;;;;12.30;5.10;;;;;;;15.11;68.35;100313.14;104675;1271;100064;-79
2023/06/02 00:07:03;;;;;;;13.10;5.20;;;;;;;15.10;68.72;100311.48;104694;1267;97751;-78
2023/06/02 00:09:49;;;;;;;12.60;5.50;;;;;;;15.09;69.06;100308.84;104671;1273;97467;-79
2023/06/02 00:12:34;;;;;;;10.20;4.90;;;;;;;15.11;69.14;100311.83;104757;1267;97411;-79
2023/06/02 00:15:20;;;;;;;12.00;5.20;;;;;;;15.11;69.13;100316.39;104872;1267;99998;-80
2023/06/02 00:18:07;;;;;;;12.80;5.60;;;;;;;15.09;69.28;100314.83;104918;1267;100129;-78
2023/06/02 00:20:53;;;;;;;16.90;5.60;;;;;;;15.02;69.58;100311.23;104880;1272;97734;-79
2023/06/02 00:23:39;;;;;;;13.10;5.00;;;;;;;14.91;69.72;100312.42;104873;1270;96860;-79
2023/06/02 00:26:25;;;;;;;16.60;5.20;;;;;;;14.78;70.04;100316.66;104924;1271;96536;-78
2023/06/02 00:29:12;;;;;;;12.70;5.30;;;;;;;14.71;70.38;100318.33;104928;1270;100040;-79
2023/06/02 00:31:57;;;;;;;13.20;5.60;;;;;;;14.69;70.73;100317.73;104884;1273;100177;-78
2023/06/02 00:34:43;;;;;;;13.50;5.90;;;;;;;14.67;70.73;100316.41;104950;1267;97774;-78
2023/06/02 00:37:28;;;;;;;12.40;5.30;;;;;;;14.59;70.84;100312.91;104819;1270;97143;-78
2023/06/02 00:40:14;;;;;;;13.60;5.10;;;;;;;14.50;71.26;100309.55;104686;1272;97124;-78
2023/06/02 00:43:01;;;;;;;11.20;5.40;;;;;;;14.44;71.47;100308.63;104793;1270;100004;-78
2023/06/02 00:45:47;;;;;;;13.30;5.30;;;;;;;14.41;71.67;100307.83;104746;1267;100354;-78
2023/06/02 00:48:32;;;;;;;15.00;6.00;;;;;;;14.41;71.67;100309.39;104712;1272;97714;-78
2023/06/02 00:51:18;;;;;;;15.40;5.90;;;;;;;14.41;71.75;100313.70;104660;1272;96602;-79
2023/06/02 00:54:05;;;;;;;11.60;5.70;;;;;;;14.43;71.73;100312.66;104687;1270;98763;-79
2023/06/02 00:56:51;;;;;;;14.80;5.80;;;;;;;14.46;71.56;100311.44;104747;1270;100751;-78
2023/06/02 00:59:37;;;;;;;17.20;5.80;;;;;;;14.46;71.45;100311.89;104738;1270;100037;-79
2023/06/02 01:02:23;;;;;;;9.60;5.40;;;;;;;14.47;71.54;100311.05;104566;1270;99032;-79
2023/06/02 01:05:10;;;;;;;15.70;5.50;;;;;;;14.46;71.64;100305.84;104722;1272;96619;-79
2023/06/02 01:08:01;;;;;;;13.20;5.30;;;;;;;14.43;71.67;100307.30;104671;1267;96945;-78
2023/06/02 01:10:47;;;;;;;13.10;5.80;;;;;;;14.41;71.71;100307.04;104745;1270;100038;-79
2023/06/02 01:13:34;;;;;;;15.50;6.10;;;;;;;14.39;71.77;100309.99;104754;1267;100346;-78
2023/06/02 01:16:19;;;;;;;15.00;5.60;;;;;;;14.38;71.69;100306.44;104768;1279;98464;-78
2023/06/02 01:19:13;;;;;;;13.70;6.50;;;;;;;14.37;71.53;100309.64;104711;1267;96921;-78
2023/06/02 01:22:01;;;;;;;13.20;5.40;;;;;;;14.36;71.45;100306.41;104673;1267;97081;-80
2023/06/02 01:24:48;;;;;;;10.70;5.70;;;;;;;14.34;71.60;100308.13;104746;1270;99997;-79
2023/06/02 01:27:34;;;;;;;10.00;5.60;;;;;;;14.32;71.71;100313.23;104912;1270;99802;-80
2023/06/02 01:30:19;;;;;;;14.60;6.40;;;;;;;14.31;71.53;100312.17;104883;1267;98721;-80
2023/06/02 01:33:51;;;;;;;14.30;5.80;;;;;;;14.27;71.91;100312.09;104981;1270;96620;-80
2023/06/02 01:36:39;;;;;;;10.70;6.10;;;;;;;14.20;72.40;100314.16;104929;1270;97168;-80
2023/06/02 01:39:27;;;;;;;15.30;8.10;;;;;;;14.15;72.31;100318.49;104860;1274;101392;-80
2023/06/02 01:42:15;;;;;;;16.20;7.70;;;;;;;14.12;72.31;100316.11;104918;1267;99113;-80
2023/06/02 01:45:02;;;;;;;11.30;6.20;;;;;;;14.09;72.49;100313.92;105017;1267;99465;-79
2023/06/02 01:47:48;;;;;;;15.50;7.10;;;;;;;14.06;72.74;100317.63;105133;1270;96632;-80
2023/06/02 01:50:37;;;;;;;16.20;7.00;;;;;;;14.03;72.72;100315.91;104973;1267;97550;-79
2023/06/02 01:53:26;;;;;;;12.60;6.50;;;;;;;13.99;72.96;100315.86;104930;1273;100769;-79
2023/06/02 01:56:12;;;;;;;19.00;7.40;;;;;;;13.94;73.03;100314.85;104937;1267;100999;-79
2023/06/02 01:58:58;;;;;;;17.50;6.80;;;;;;;13.90;73.07;100314.66;105022;1270;97767;-79
2023/06/02 02:01:44;;;;;;;16.10;6.70;;;;;;;13.87;73.13;100311.32;104934;1273;96847;-80
2023/06/02 02:04:30;;;;;;;17.30;7.40;;;;;;;13.82;73.28;100312.70;104977;1267;96829;-80
2023/06/02 02:07:19;;;;;;;19.80;7.00;;;;;;;13.79;73.49;100315.70;104933;1270;100006;-80
2023/06/02 02:10:05;;;;;;;14.30;7.60;;;;;;;13.75;73.78;100317.45;104871;1270;99085;-77
2023/06/02 02:12:50;;;;;;;17.70;7.70;;;;;;;13.70;73.63;100317.66;104888;1272;99007;-79
2023/06/02 02:15:36;;;;;;;16.10;7.10;;;;;;;13.64;73.87;100316.39;104998;1272;97224;-79
2023/06/02 02:18:24;;;;;;;13.20;7.20;;;;;;;13.59;74.06;100313.48;104853;1267;97167;-80
2023/06/02 02:21:10;;;;;;;16.20;7.70;;;;;;;13.59;74.11;100307.85;104814;1270;100006;-80
2023/06/02 02:23:56;;;;;;;14.40;7.80;;;;;;;13.58;74.19;100307.98;105132;1267;99167;-79
2023/06/02 02:26:43;;;;;;;15.50;7.30;;;;;;;13.55;74.43;100308.98;104716;1273;97749;-79
2023/06/02 02:29:29;;;;;;;19.60;8.10;;;;;;;13.45;74.61;100308.90;104629;1272;97313;-77
2023/06/02 02:32:14;;;;;;;17.00;7.90;;;;;;;13.39;74.68;100309.78;104639;1273;97151;-80
2023/06/02 02:35:00;;;;;;;15.60;8.30;;;;;;;13.33;74.70;100307.15;104711;1270;101186;-79
2023/06/02 02:37:46;;;;;;;12.50;7.80;;;;;;;13.28;74.97;100303.81;104829;1266;100407;-79
2023/06/02 02:40:33;;;;;;;17.60;7.90;;;;;;;13.24;75.03;100302.58;104729;1267;97745;-78
2023/06/02 02:43:19;;;;;;;18.30;7.70;;;;;;;13.21;75.19;100303.45;104712;1285;96581;-79
2023/06/02 02:46:05;;;;;;;17.30;8.10;;;;;;;13.19;75.17;100304.00;104758;1271;97129;-78
2023/06/02 02:48:51;;;;;;;20.50;9.40;;;;;;;13.17;75.49;100304.05;104745;1267;101225;-80
2023/06/02 02:51:36;;;;;;;19.50;8.60;;;;;;;13.14;75.59;100303.65;104844;1267;100268;-80
2023/06/02 02:54:24;;;;;;;14.70;7.80;;;;;;;13.15;75.75;100304.43;104929;1267;98993;-79
2023/06/02 02:57:10;;;;;;;17.70;7.90;;;;;;;13.15;75.63;100307.70;104713;1267;96709;-79
2023/06/02 02:59:55;;;;;;;16.60;8.40;;;;;;;13.14;75.73;100308.65;104797;1270;96722;-79
2023/06/02 03:02:41;;;;;;;15.80;8.20;;;;;;;13.13;75.91;100307.98;104926;1273;99990;-80
2023/06/02 03:05:27;;;;;;;13.20;8.40;;;;;;;13.10;76.09;100311.17;104952;1283;101471;-79
2023/06/02 03:08:15;;;;;;;17.10;8.70;;;;;;;13.09;76.19;100314.83;104961;1270;99035;-79
2023/06/02 03:11:01;;;;;;;13.30;8.30;;;;;;;13.10;76.20;100316.02;104995;1270;97086;-79
2023/06/02 03:13:47;;;;;;;17.80;8.30;;;;;;;13.12;76.20;100317.42;105004;1272;97352;-79
2023/06/02 03:16:34;;;;;;;14.40;8.80;;;;;;;13.13;76.13;100320.85;104893;1267;108927;-79
2023/06/02 03:19:24;;;;;;;16.80;8.40;;;;;;;13.12;76.18;100318.33;104997;1271;99118;-80
2023/06/02 03:22:10;;;;;;;17.70;8.70;;;;;;;13.08;76.40;100320.77;104854;1272;98458;-80
2023/06/02 03:24:57;;;;;;;16.80;8.70;;;;;;;13.08;76.57;100320.98;105013;1267;96718;-80
2023/06/02 03:27:43;;;;;;;20.00;10.20;;;;;;;13.10;76.43;100320.24;105036;1267;97125;-79
2023/06/02 03:30:30;;;;;;;19.20;8.80;;;;;;;13.07;76.67;100321.20;105005;1272;101934;-78
2023/06/02 03:33:18;;;;;;;15.70;8.90;;;;;;;13.06;76.75;100323.59;104920;1271;99972;-79
2023/06/02 03:36:03;;;;;;;18.00;9.00;;;;;;;13.04;77.03;100325.77;104851;1267;97757;-79
2023/06/02 03:38:49;;;;;;;16.60;9.40;;;;;;;13.03;76.98;100326.64;105014;1284;96728;-80
2023/06/02 03:41:37;;;;;;;14.90;8.10;;;;;;;13.02;76.95;100327.87;105007;1270;97068;-79
2023/06/02 03:44:24;;;;;;;17.90;9.30;;;;;;;13.03;77.22;100331.39;105052;1279;100908;-79
2023/06/02 03:47:10;;;;;;;19.10;8.00;;;;;;;13.02;77.54;100330.44;104905;1270;99133;-79
2023/06/02 03:49:56;;;;;;;15.30;8.90;;;;;;;13.04;77.81;100331.44;104876;1270;98471;-77
2023/06/02 03:52:41;;;;;;;17.60;8.20;;;;;;;13.07;77.97;100331.23;104842;1268;96765;-79
2023/06/02 03:55:27;;;;;;;13.70;8.50;;;;;;;13.06;77.94;100334.42;104802;1273;96974;-78
2023/06/02 03:58:14;;;;;;;15.90;8.30;;;;;;;13.04;78.09;100338.39;104912;1270;101243;-79
2023/06/02 04:01:01;;;;;;;16.50;8.50;;;;;;;13.06;78.21;100337.70;104984;1267;99516;-79
2023/06/02 04:03:47;;;;;;;12.80;7.60;;;;;;;13.08;78.44;100340.02;104957;1270;100359;-82
2023/06/02 04:06:34;;;;;;;18.50;8.00;;;;;;;13.10;78.97;100343.00;104978;1272;97036;-79
2023/06/02 04:09:20;;;;;;;14.70;7.70;;;;;;;13.14;79.18;100342.11;104922;1267;97486;-79
2023/06/02 04:12:07;;;;;;;12.10;7.30;;;;;;;13.18;79.15;100341.24;105036;1267;99972;-78
2023/06/02 04:14:54;;;;;;;15.60;8.00;;;;;;;13.18;79.21;100346.16;105019;1270;101003;-80
2023/06/02 04:17:39;;;;;;;18.60;8.40;;;;;;;13.18;79.32;100345.46;104943;1272;98971;-80
2023/06/02 04:20:25;;;;;;;15.50;7.10;;;;;;;13.19;79.43;100350.88;105006;1272;96704;-80
2023/06/02 04:23:10;;;;;;;13.30;6.40;;;;;;;13.21;79.73;100353.36;105483;1267;97317;-79
2023/06/02 04:25:56;;;;;;;16.10;6.70;;;;;;;13.23;79.82;100355.55;104975;1271;100007;-80
2023/06/02 04:28:42;;;;;;;12.00;7.00;;;;;;;13.26;79.90;100352.81;105068;1267;99245;-80
2023/06/02 04:31:57;;;;;;;17.10;7.10;;;;;;;13.27;80.14;100352.19;105056;1267;98409;-80
2023/06/02 04:34:46;;;;;;;13.40;6.50;;;;;;;13.23;80.04;100349.84;104997;1265;97435;-79
2023/06/02 04:37:32;;;;;;;10.00;5.90;;;;;;;13.21;80.15;100352.98;105061;1267;96620;-79
2023/06/02 04:40:18;;;;;;;11.10;5.90;;;;;;;13.22;80.62;100354.42;105017;1267;100006;-79
2023/06/02 04:43:04;;;;;;;15.40;6.20;;;;;;;13.26;80.86;100354.09;104913;1270;100146;-80
2023/06/02 04:45:50;;;;;;;16.50;6.50;;;;;;;13.30;80.99;100357.10;104927;1267;97740;-79
2023/06/02 04:48:40;;;;;;;15.60;6.30;;;;;;;13.34;81.06;100355.23;104706;1270;96634;-79
2023/06/02 04:51:27;;;;;;;10.80;6.40;;;;;;;13.39;81.11;100355.48;104799;1270;97142;-78
2023/06/02 04:54:15;;;;;;;10.80;6.10;;;;;;;13.40;81.05;100356.59;104924;1270;100442;-80
2023/06/02 04:57:05;;;;;;;15.60;5.70;;;;;;;13.40;81.41;100359.52;104908;1267;100118;-80
2023/06/02 04:59:51;;;;;;;9.30;5.10;;;;;;;13.43;81.50;100364.23;104831;1267;97733;-78
2023/06/02 05:02:38;;;;;;;9.80;5.30;;;;;;;13.47;81.71;100363.15;104872;1266;96562;-79
2023/06/02 05:05:23;;;;;;;15.50;5.70;;;;;;;13.49;81.52;100365.96;104885;1271;97053;-79
2023/06/02 05:08:08;;;;;;;13.10;6.10;;;;;;;13.52;81.43;100361.48;104855;1270;101308;-78
2023/06/02 05:10:54;;;;;;;15.40;6.10;;;;;;;13.56;81.29;100360.77;104849;1270;99098;-79
2023/06/02 05:13:40;;;;;;;13.00;7.50;;;;;;;13.59;81.61;100357.70;104855;1267;98942;-77
2023/06/02 05:16:28;;;;;;;11.40;5.70;;;;;;;13.61;81.47;100362.04;104785;1268;96776;-79
2023/06/02 05:19:13;;;;;;;12.70;6.20;;;;;;;13.66;81.47;100358.79;104817;1272;96697;-79
2023/06/02 05:21:59;;;;;;;10.00;5.90;;;;;;;13.71;81.31;100361.13;104876;1267;99889;-77
2023/06/02 05:24:45;;;;;;;12.10;6.20;;;;;;;13.77;81.27;100359.79;104936;1272;99093;-79
2023/06/02 05:27:31;;;;;;;8.30;5.80;;;;;;;13.82;81.45;100363.41;104818;1267;97823;-78
2023/06/02 05:30:17;;;;;;;11.10;5.90;;;;;;;13.86;81.32;100366.55;104830;1267;96647;-79
2023/06/02 05:33:03;;;;;;;8.70;5.10;;;;;;;13.87;81.22;100375.90;104921;1267;97072;-79
2023/06/02 05:35:49;;;;;;;10.60;5.20;;;;;;;13.90;81.26;100380.48;104952;1267;100873;-79
2023/06/02 05:38:41;;;;;;;14.60;6.60;;;;;;;13.91;81.13;100382.02;104832;1267;99107;-80
2023/06/02 05:41:28;;;;;;;12.60;5.30;;;;;;;13.93;81.08;100383.66;105406;1267;97810;-79
2023/06/02 05:44:14;;;;;;;11.70;5.60;;;;;;;13.95;80.89;100388.00;104862;1273;97518;-79
2023/06/02 05:47:00;;;;;;;16.10;4.80;;;;;;;13.93;80.60;100393.44;104868;1267;97171;-79
2023/06/02 05:49:47;;;;;;;10.10;4.80;;;;;;;13.92;80.56;100395.68;104891;1267;100011;-80
2023/06/02 05:52:32;;;;;;;12.60;4.90;;;;;;;13.94;80.45;100393.98;105024;1272;100910;-80
2023/06/02 05:55:18;;;;;;;8.10;4.70;;;;;;;13.98;80.73;100394.73;104924;1270;98898;-81
2023/06/02 05:58:04;;;;;;;10.60;4.60;;;;;;;14.00;80.44;100398.79;104910;1267;96638;-78
2023/06/02 06:00:50;;;;;;;9.80;4.80;;;;;;;13.98;80.32;100395.61;104842;1270;97155;-78
2023/06/02 06:03:35;;;;;;;9.50;4.90;;;;;;;14.00;80.53;100393.37;104895;1270;100093;-81
2023/06/02 06:06:22;;;;;;;10.40;4.30;;;;;;;14.04;80.56;100398.45;105046;1269;100357;-80
2023/06/02 06:09:07;;;;;;;11.30;5.00;;;;;;;14.04;80.46;100403.09;104968;1273;97748;-80
2023/06/02 06:11:54;;;;;;;9.30;4.20;;;;;;;14.05;80.52;100409.25;105007;1271;98066;-81
2023/06/02 06:14:39;;;;;;;10.80;5.00;;;;;;;14.07;80.49;100412.67;105102;1270;96629;-80
2023/06/02 06:17:25;;;;;;;10.30;4.30;;;;;;;14.08;80.05;100417.48;104997;1270;100014;-78
2023/06/02 06:20:11;;;;;;;9.30;4.50;;;;;;;14.05;80.09;100418.45;104918;1272;99677;-79
2023/06/02 06:22:56;;;;;;;13.40;4.40;;;;;;;14.04;79.81;100420.98;104858;1273;97757;-80
2023/06/02 06:25:43;;;;;;;9.00;4.10;;;;;;;14.02;79.55;100423.48;104750;1274;96614;-79
2023/06/02 06:28:29;;;;;;;8.50;3.60;;;;;;;14.00;79.27;100427.22;104773;1273;97421;-79
2023/06/02 06:31:17;;;;;;;12.60;4.60;;;;;;;13.99;79.35;100435.10;104757;1267;101209;-79
2023/06/02 06:34:04;;;;;;;6.40;3.10;;;;;;;13.98;79.31;100439.66;104593;1269;100468;-79
2023/06/02 06:36:51;;;;;;;7.40;3.50;;;;;;;13.94;79.23;100439.75;104680;1270;97785;-78
2023/06/02 06:39:36;;;;;;;11.80;3.60;;;;;;;13.91;78.99;100440.06;104777;1268;97225;-79
2023/06/02 06:42:23;;;;;;;6.20;3.70;;;;;;;13.88;79.29;100447.23;104857;1267;96575;-79
2023/06/02 06:45:20;;;;;;;11.90;3.80;;;;;;;13.83;78.99;100450.80;104907;1269;101221;-78
2023/06/02 06:48:06;;;;;;;6.60;3.90;;;;;;;13.79;79.10;100450.10;104851;1274;99178;-78
2023/06/02 06:50:52;;;;;;;7.70;3.80;;;;;;;13.77;79.09;100455.88;104920;1266;98768;-80
2023/06/02 06:53:38;;;;;;;10.80;3.40;;;;;;;13.73;79.10;100454.96;104930;1270;96640;-80
2023/06/02 06:56:25;;;;;;;12.00;3.80;;;;;;;13.70;79.16;100457.88;104833;1271;97091;-79
2023/06/02 06:59:10;;;;;;;11.70;3.90;;;;;;;13.68;79.48;100461.90;104860;1270;109124;-78
2023/06/02 07:01:56;;;;;;;9.70;3.60;;;;;;;13.72;79.54;100470.25;104887;1270;101317;-79
2023/06/02 07:04:42;;;;;;;8.90;4.00;;;;;;;13.79;79.76;100469.11;104900;1267;99006;-78
2023/06/02 07:07:27;;;;;;;5.00;2.60;;;;;;;13.82;79.60;100469.85;104835;1271;96625;-79
2023/06/02 07:10:16;;;;;;;8.90;3.50;;;;;;;13.83;79.62;100472.67;104779;1270;97122;-79
2023/06/02 07:13:02;;;;;;;16.40;2.70;;;;;;;13.84;79.23;100473.87;104896;1269;99990;-78
2023/06/02 07:15:48;;;;;;;10.30;3.10;;;;;;;13.81;79.22;100482.90;104888;1267;99046;-80
2023/06/02 07:18:34;;;;;;;8.40;3.20;;;;;;;13.80;79.09;100484.27;104826;1267;99090;-79
2023/06/02 07:21:20;;;;;;;5.50;3.20;;;;;;;13.83;79.41;100486.59;104856;1267;96657;-78
2023/06/02 07:24:05;;;;;;;10.70;3.90;;;;;;;13.87;79.40;100487.41;105074;1267;98295;-78
2023/06/02 07:26:51;;;;;;;7.30;3.10;;;;;;;13.90;79.06;100487.40;104895;1266;100030;-79
2023/06/02 07:29:36;;;;;;;8.50;3.30;;;;;;;13.88;78.90;100490.30;104888;1267;99153;-77
2023/06/02 07:32:22;;;;;;;8.50;3.80;;;;;;;13.88;79.03;100494.11;104873;1270;97758;-78
2023/06/02 07:35:08;;;;;;;9.10;3.10;;;;;;;13.91;79.12;100492.83;104858;1266;96625;-79
2023/06/02 07:37:54;;;;;;;6.40;3.40;;;;;;;13.97;79.36;100493.92;104891;1270;96519;-79
2023/06/02 07:40:40;;;;;;;8.20;3.50;;;;;;;14.07;79.57;100492.91;104696;1269;102186;-80
2023/06/02 07:43:25;;;;;;;10.50;4.00;;;;;;;14.14;79.14;100493.88;104807;1273;99087;-78
2023/06/02 07:46:11;;;;;;;10.70;3.70;;;;;;;14.19;78.92;100493.28;104830;1270;97925;-79
2023/06/02 07:48:57;;;;;;;10.60;3.40;;;;;;;14.25;79.09;100493.92;104869;1267;96581;-78
2023/06/02 07:51:43;;;;;;;11.00;3.50;;;;;;;14.29;78.52;100497.37;105012;1271;97134;-79
2023/06/02 07:54:29;;;;;;;12.90;3.80;;;;;;;14.32;78.27;100496.41;105020;1267;101372;-80
2023/06/02 07:57:14;;;;;;;9.20;3.80;;;;;;;14.32;77.93;100493.02;104877;1267;99281;-77
2023/06/02 08:00:12;;;;;;;6.20;3.20;;;;;;;14.32;77.91;100496.79;104909;1269;98713;-79
2023/06/02 08:02:57;;;;;;;9.60;3.30;;;;;;;14.34;78.06;100499.23;104857;1267;96534;-79
2023/06/02 08:05:44;;;;;;;11.00;3.70;;;;;;;14.40;78.25;100502.67;104997;1271;97580;-80
2023/06/02 08:08:30;;;;;;;9.00;4.00;;;;;;;14.47;78.23;100511.24;104926;1269;100073;-80
2023/06/02 08:11:16;;;;;;;8.00;4.20;;;;;;;14.51;77.85;100516.45;104940;1271;99137;-79
2023/06/02 08:14:01;;;;;;;12.00;4.00;;;;;;;14.56;78.16;100516.76;105002;1272;98732;-79
2023/06/02 08:16:48;;;;;;;10.60;4.70;;;;;;;14.65;78.14;100523.13;104901;1270;96618;-80
2023/06/02 08:19:35;;;;;;;14.40;4.60;;;;;;;14.72;77.55;100529.23;104902;1270;97062;-79
2023/06/02 08:22:20;;;;;;;14.50;4.00;;;;;;;14.79;77.39;100534.19;104898;1267;101005;-80
2023/06/02 08:25:06;;;;;;;10.60;3.90;;;;;;;14.88;77.22;100532.31;105036;1267;99086;-79
2023/06/02 08:27:54;;;;;;;11.50;3.60;;;;;;;14.98;77.18;100532.66;105024;1266;97776;-80
2023/06/02 08:30:46;;;;;;;7.20;3.40;;;;;;;15.07;77.03;100535.30;104868;1267;98168;-79
2023/06/02 08:33:33;;;;;;;16.60;4.20;;;;;;;15.18;77.11;100534.82;104808;1270;97209;-79
2023/06/02 08:36:19;;;;;;;8.80;4.30;;;;;;;15.26;76.66;100536.52;104776;1268;100391;-78
2023/06/02 08:39:07;;;;;;;12.30;4.30;;;;;;;15.29;76.36;100537.32;104859;1267;100879;-80
2023/06/02 08:41:55;;;;;;;11.00;4.30;;;;;;;15.33;76.36;100540.02;104888;1270;98670;-80
2023/06/02 08:44:43;;;;;;;9.00;4.40;;;;;;;15.38;76.31;100536.90;105080;1267;96601;-80
2023/06/02 08:47:30;;;;;;;10.80;4.00;;;;;;;15.40;75.87;100535.77;104946;1267;97605;-79
2023/06/02 08:50:16;;;;;;;13.30;3.80;;;;;;;15.37;75.82;100536.21;104900;1267;101291;-79
2023/06/02 08:53:05;;;;;;;13.80;4.30;;;;;;;15.28;75.20;100537.20;104921;1270;99269;-79
2023/06/02 08:55:51;;;;;;;7.80;4.20;;;;;;;15.19;75.19;100540.13;104957;1270;97730;-79
2023/06/02 08:58:36;;;;;;;7.90;3.40;;;;;;;15.17;75.76;100542.92;104954;1270;96452;-80
2023/06/02 09:01:22;;;;;;;12.90;4.10;;;;;;;15.15;75.56;100549.45;104797;1269;96537;-78
2023/06/02 09:04:07;;;;;;;13.10;4.20;;;;;;;15.11;75.53;100553.01;104769;1270;100858;-78
2023/06/02 09:07:11;;;;;;;12.80;3.70;;;;;;;15.05;75.74;100553.79;104656;1266;99107;-79
2023/06/02 09:09:57;;;;;;;11.70;3.70;;;;;;;14.98;75.58;100560.11;104739;1268;97748;-79
2023/06/02 09:12:50;;;;;;;11.20;3.70;;;;;;;14.92;75.76;100564.13;104805;1267;96958;-79
2023/06/02 09:15:53;;;;;;;6.90;3.70;;;;;;;14.84;75.97;100569.27;104656;1267;98383;-78
2023/06/02 09:18:39;;;;;;;9.40;3.50;;;;;;;14.76;76.44;100573.77;104899;1270;99987;-79
2023/06/02 09:21:28;;;;;;;4.40;3.30;;;;;;;14.72;76.75;100576.86;104927;1269;99306;-79
2023/06/02 09:24:29;;;;;;;8.00;3.60;;;;;;;14.68;76.87;100576.67;105004;1267;97775;-79
2023/06/02 09:27:16;;;;;;;8.30;3.70;;;;;;;14.66;77.30;100579.08;104803;1270;96632;-79
2023/06/02 09:30:02;;;;;;;8.80;3.70;;;;;;;14.66;77.32;100575.34;104779;1271;96622;-78
2023/06/02 09:32:52;;;;;;;8.00;2.70;;;;;;;14.63;77.00;100577.69;104553;1269;100013;-79
2023/06/02 09:35:42;;;;;;;7.10;3.20;;;;;;;14.64;77.29;100581.88;104594;1270;99967;-77
2023/06/02 09:38:41;;;;;;;9.80;2.30;;;;;;;14.60;77.33;100585.05;104944;1270;100053;-79
2023/06/02 09:41:30;;;;;;;4.30;2.40;;;;;;;14.51;77.56;100584.79;104857;1270;96643;-79
2023/06/02 09:44:17;;;;;;;3.40;2.10;;;;;;;14.52;77.70;100588.35;104793;1266;97453;-79
2023/06/02 09:47:22;;;;;;;7.90;2.70;;;;;;;14.58;77.95;100589.02;104860;1271;100030;-79
2023/06/02 09:50:09;;;;;;;3.50;2.00;;;;;;;14.70;78.33;100592.15;104917;1269;101130;-80
2023/06/02 09:53:04;;;;;;;8.40;2.10;;;;;;;14.80;78.51;100595.16;104894;1278;98078;-79
2023/06/02 09:55:50;;;;;;;7.90;2.80;;;;;;;14.88;78.29;100598.58;104891;1270;97916;-79
2023/06/02 09:58:36;;;;;;;7.20;3.30;;;;;;;14.81;78.14;100599.44;104941;1270;98488;-79
2023/06/02 10:01:22;;;;;;;7.60;2.00;;;;;;;14.66;78.01;100611.15;104908;1267;101333;-79
2023/06/02 10:04:10;;;;;;;4.10;2.30;;;;;;;14.48;78.28;100613.86;104930;1269;99581;-80
2023/06/02 10:07:06;;;;;;;4.80;1.90;;;;;;;14.35;78.96;100618.12;104752;1273;97922;-79
2023/06/02 10:09:57;;;;;;;5.40;2.30;;;;;;;14.30;79.20;100624.63;104939;1269;97976;-79
2023/06/02 10:13:00;;;;;;;5.90;2.40;;;;;;;14.16;79.32;100632.23;105001;1268;97934;-79
2023/06/02 10:16:17;;;;;;;5.90;3.10;;;;;;;13.98;79.17;100640.02;105013;1270;102682;-79
2023/06/02 10:19:12;;;;;;;5.40;3.10;;;;;;;13.78;80.01;100640.77;104948;1267;100256;-78
2023/06/02 10:22:33;;;;;;;7.90;3.80;;;;;;;13.63;80.67;100642.56;104926;1270;99007;-78
2023/06/02 10:25:30;;;;;;;5.60;2.90;;;;;;;13.44;80.19;100649.45;104987;1270;98497;-79
2023/06/02 10:28:16;;;;;;;5.70;3.10;;;;;;;13.33;80.49;100649.42;104746;1271;98001;-77
2023/06/02 10:31:08;;;;;;;8.10;3.20;;;;;;;13.31;80.72;100652.27;104742;1270;101355;-79
2023/06/02 10:33:56;;;;;;;7.90;3.30;;;;;;;13.29;80.98;100660.88;104770;1269;99878;-78
2023/06/02 10:37:00;;;;;;;7.70;3.60;;;;;;;13.27;81.19;100665.39;104839;1267;98952;-77
2023/06/02 10:39:48;;;;;;;7.40;4.60;;;;;;;13.34;81.51;100672.02;104703;1271;98006;-77
2023/06/02 10:42:34;;;;;;;12.60;3.60;;;;;;;13.39;81.61;100672.37;104675;1267;101758;-77
2023/06/02 10:45:24;;;;;;;7.20;3.80;;;;;;;13.35;81.02;100671.36;104516;1267;102601;-79
2023/06/02 10:48:38;;;;;;;9.00;3.10;;;;;;;13.25;80.93;100676.59;104880;1269;100122;-79
2023/06/02 10:51:23;;;;;;;5.80;3.20;;;;;;;13.22;81.61;100679.65;104578;1270;98138;-77
2023/06/02 10:54:11;;;;;;;7.00;3.70;;;;;;;13.21;81.52;100682.29;104617;1270;97916;-78
2023/06/02 10:56:59;;;;;;;8.90;3.40;;;;;;;13.17;81.34;100683.77;104778;1267;98589;-80
2023/06/02 10:59:45;;;;;;;11.70;4.80;;;;;;;13.13;81.51;100682.97;104656;1270;102598;-78
2023/06/02 11:02:44;;;;;;;10.10;4.00;;;;;;;13.12;81.42;100683.55;104568;1270;100353;-79
2023/06/02 11:05:32;;;;;;;9.20;4.10;;;;;;;13.15;81.86;100688.09;104644;1267;98002;-79
2023/06/02 11:08:18;;;;;;;6.30;3.50;;;;;;;13.24;81.93;100686.27;104622;1267;98032;-77
2023/06/02 11:11:04;;;;;;;11.90;3.70;;;;;;;13.35;81.95;100689.41;104684;1268;98498;-77
2023/06/02 11:13:59;;;;;;;7.10;2.90;;;;;;;13.44;81.36;100693.33;104729;1268;101382;-78
2023/06/02 11:16:44;;;;;;;7.90;3.90;;;;;;;13.46;81.07;100696.93;104720;1271;100410;-78
2023/06/02 11:19:48;;;;;;;8.20;3.00;;;;;;;13.46;81.15;100701.44;104605;1268;97981;-76
2023/06/02 11:22:34;;;;;;;6.10;3.30;;;;;;;13.44;80.66;100705.96;104491;1274;99198;-78
2023/06/02 11:25:20;;;;;;;8.00;3.40;;;;;;;13.42;80.59;100711.30;104864;1269;97980;-78
2023/06/02 11:28:15;;;;;;;7.20;2.90;;;;;;;13.38;80.32;100714.46;104744;1271;101356;-79
2023/06/02 11:31:08;;;;;;;7.00;3.20;;;;;;;13.34;79.75;100725.71;104569;1269;107843;-79
2023/06/02 11:33:54;;;;;;;4.60;3.00;;;;;;;13.26;79.56;100725.69;104611;1271;97996;-76
2023/06/02 11:36:40;;;;;;;7.30;3.20;;;;;;;13.18;79.62;100734.25;104522;1268;97977;-77
2023/06/02 11:39:25;;;;;;;4.30;2.70;;;;;;;13.14;79.87;100740.57;104484;1267;98620;-77
2023/06/02 11:42:11;;;;;;;6.20;3.00;;;;;;;13.13;79.97;100740.05;104627;1267;101364;-77
2023/06/02 11:44:56;;;;;;;4.40;2.60;;;;;;;13.09;79.93;100742.86;104592;1269;100346;-78
2023/06/02 11:47:42;;;;;;;7.70;2.80;;;;;;;13.06;80.19;100745.79;104599;1267;99270;-77
2023/06/02 11:50:29;;;;;;;9.80;2.80;;;;;;;13.05;80.01;100749.41;104551;1271;99214;-77
2023/06/02 11:53:15;;;;;;;7.20;2.60;;;;;;;13.04;80.42;100754.98;104840;1268;98485;-79
2023/06/02 11:56:00;;;;;;;6.50;2.20;;;;;;;13.06;79.12;100760.00;104794;1269;102418;-78
2023/06/02 11:58:47;;;;;;;4.60;2.20;;;;;;;13.04;78.61;100762.75;104653;1269;100375;-78
2023/06/02 12:01:33;;;;;;;4.50;2.10;;;;;;;13.02;77.71;100764.88;104676;1267;99036;-77
2023/06/02 12:04:19;;;;;;;7.40;2.30;;;;;;;13.00;76.98;100766.56;104609;1273;97899;-77
2023/06/02 12:07:04;;;;;;;3.50;1.70;;;;;;;13.03;76.59;100767.10;104598;1269;97890;-77
2023/06/02 12:09:50;;;;;;;5.70;2.10;;;;;;;13.11;76.17;100764.30;104738;1271;102585;-78
2023/06/02 12:12:37;;;;;;;3.80;1.80;;;;;;;13.20;75.52;100770.22;104606;1271;100151;-77
2023/06/02 12:15:27;;;;;;;5.10;2.40;;;;;;;13.28;74.90;100775.19;104553;1269;97951;-78
2023/06/02 12:18:12;;;;;;;6.00;2.00;;;;;;;13.36;74.37;100775.46;104694;1271;98105;-78
2023/06/02 12:20:59;;;;;;;6.90;1.90;;;;;;;13.47;74.21;100782.85;104714;1269;97917;-78
2023/06/02 12:23:46;;;;;;;4.30;1.70;;;;;;;13.60;73.31;100780.33;104934;1270;102585;-79
2023/06/02 12:26:42;;;;;;;3.80;1.70;;;;;;;13.67;72.58;100776.80;105305;1271;100653;-79
2023/06/02 12:29:28;;;;;;;2.80;1.60;;;;;;;13.77;72.15;100783.81;104834;1270;98990;-79
2023/06/02 12:32:15;;;;;;;3.20;1.70;;;;;;;13.88;71.23;100791.02;104765;1266;98054;-77
2023/06/02 12:35:01;;;;;;;4.60;2.00;;;;;;;14.00;70.79;100790.23;104728;1266;98377;-78
2023/06/02 12:37:47;;;;;;;2.90;1.30;;;;;;;14.15;70.25;100791.73;104608;1272;102565;-77
2023/06/02 12:40:32;;;;;;;5.80;1.90;;;;;;;14.24;69.44;100792.11;104674;1266;99086;-78
2023/06/02 12:43:19;;;;;;;5.40;1.90;;;;;;;14.30;68.58;100795.96;104625;1271;99071;-78